Time;durP1;ratioP1;P1;durP2;ratioP2;P2;SDS_P1;SDS_P2;PMS_P1;PMS_P2;Temp;Humidity;BMP_temperature;BMP_pressure;BME280_temperature;BME280_humidity;BME280_pressure;Samples;Min_cycle;Max_cycle;Signal;HPM_P1;HPM_P2
2022/03/22 00:01:54;;;;;;;;;;;7.40;31.50;;;5.51;33.53;103175.66;8203147;28;20016;-87
2022/03/22 00:05:56;;;;;;;;;;;7.70;31.60;;;5.63;33.21;103211.13;8212599;28;20009;-87
2022/03/22 00:09:57;;;;;;;;;;;7.40;31.60;;;5.55;33.55;103208.50;8217699;28;20033;-87
2022/03/22 00:13:59;;;;;;;;;;;7.10;31.50;;;5.37;33.80;103188.50;8216716;28;20463;-87
2022/03/22 00:18:01;;;;;;;;;;;7.10;31.50;;;5.36;33.31;103193.69;8199805;28;19929;-87
2022/03/22 00:22:03;;;;;;;;;;;7.10;31.60;;;5.26;33.55;103195.34;8200738;28;20518;-87
2022/03/22 00:26:06;;;;;;;;;;;7.10;31.60;;;5.07;33.73;103163.28;8215443;28;20295;-87
2022/03/22 00:30:08;;;;;;;;;;;6.80;31.50;;;5.07;33.70;103174.50;8199632;28;20352;-88
2022/03/22 00:34:13;;;;;;;;;;;7.00;31.70;;;5.00;33.60;103164.09;8200186;28;19993;-87
2022/03/22 00:38:20;;;;;;;;;;;7.00;31.70;;;4.97;33.54;103169.22;8199670;28;20009;-87
2022/03/22 00:42:21;;;;;;;;;;;6.90;31.70;;;5.02;33.93;103188.25;8215214;28;20001;-87
2022/03/22 00:46:23;;;;;;;;;;;6.80;31.70;;;4.79;34.03;103157.03;8215754;28;20029;-87
2022/03/22 00:50:29;;;;;;;;;;;6.80;31.70;;;4.60;33.89;103145.66;8208457;28;19997;-87
2022/03/22 00:54:33;;;;;;;;;;;6.80;31.80;;;4.77;33.84;103176.84;8216000;28;20013;-87
2022/03/22 00:58:35;;;;;;;;;;;6.30;31.60;;;4.87;33.71;103209.72;8200131;28;20014;-87
2022/03/22 01:02:39;;;;;;;;;;;6.60;31.70;;;4.60;33.83;103177.56;8200233;28;20005;-87
2022/03/22 01:06:40;;;;;;;;;;;6.50;31.70;;;4.73;33.79;103203.56;8204042;28;20060;-87
2022/03/22 01:10:44;;;;;;;;;;;6.20;31.70;;;4.39;33.72;103156.66;8200004;28;20009;-87
2022/03/22 01:14:45;;;;;;;;;;;6.10;31.60;;;4.51;34.21;103184.38;8215368;28;20037;-86
2022/03/22 01:18:47;;;;;;;;;;;6.50;31.80;;;4.46;33.84;103180.88;8214069;28;19927;-87
2022/03/22 01:22:49;;;;;;;;;;;6.30;31.80;;;4.25;33.90;103141.00;8215331;28;20355;-87
2022/03/22 01:26:51;;;;;;;;;;;6.20;31.80;;;4.48;34.05;103184.34;8213654;28;20001;-87
2022/03/22 01:30:53;;;;;;;;;;;6.20;31.80;;;4.36;34.13;103178.19;8199677;28;20001;-87
2022/03/22 01:34:54;;;;;;;;;;;6.20;31.80;;;4.21;33.63;103153.06;8196934;29;19918;-88
2022/03/22 01:38:58;;;;;;;;;;;6.20;31.90;;;4.28;33.83;103174.66;8214285;28;20017;-88
2022/03/22 01:42:59;;;;;;;;;;;6.00;31.80;;;4.33;34.30;103188.50;8197953;28;20009;-88
2022/03/22 01:47:02;;;;;;;;;;;6.10;31.90;;;4.17;34.42;103158.16;8214241;28;20002;-88
2022/03/22 01:51:05;;;;;;;;;;;6.00;31.90;;;4.13;34.33;103153.78;8211112;28;20002;-88
2022/03/22 01:55:08;;;;;;;;;;;6.00;31.90;;;4.22;34.33;103174.59;8214735;28;20016;-88
2022/03/22 01:59:10;;;;;;;;;;;6.00;32.00;;;4.14;34.13;103168.47;8213778;28;19922;-88
2022/03/22 02:07:34;;;;;;;;;;;5.50;31.80;;;4.07;34.37;103162.34;8212143;28;20002;-88
2022/03/22 02:11:35;;;;;;;;;;;5.80;31.90;;;3.91;34.35;103147.53;8207298;28;20367;-88
2022/03/22 02:15:36;;;;;;;;;;;5.80;32.00;;;3.89;34.15;103155.28;8197625;28;20441;-88
2022/03/22 02:19:39;;;;;;;;;;;5.70;32.00;;;3.84;34.18;103149.19;8221446;28;20005;-88
2022/03/22 02:23:50;;;;;;;;;;;5.70;32.00;;;3.83;34.22;103165.50;8218603;28;19919;-88
2022/03/22 02:27:52;;;;;;;;;;;5.60;32.00;;;3.72;34.53;103143.84;8213313;28;20029;-87
2022/03/22 02:31:54;;;;;;;;;;;5.50;32.00;;;3.51;34.44;103110.84;8195333;29;20004;-88
2022/03/22 02:35:56;;;;;;;;;;;5.50;32.00;;;3.33;34.49;103091.69;8213522;28;20018;-88
2022/03/22 02:39:58;;;;;;;;;;;5.50;32.10;;;3.66;34.28;103154.13;8219136;28;20013;-88
2022/03/22 02:44:00;;;;;;;;;;;5.20;32.00;;;3.52;34.62;103141.03;8220128;28;20458;-87
2022/03/22 02:48:02;;;;;;;;;;;5.10;32.00;;;3.57;34.18;103151.44;8218779;28;20017;-87
2022/03/22 02:52:03;;;;;;;;;;;5.30;32.30;;;3.48;34.20;103144.41;8216365;28;20013;-87
2022/03/22 02:56:05;;;;;;;;;;;5.40;32.10;;;3.51;34.51;103150.50;8202269;28;20005;-88
2022/03/22 03:00:08;;;;;;;;;;;5.40;32.20;;;3.53;34.17;103156.53;8220099;28;19922;-88
2022/03/22 03:04:10;;;;;;;;;;;5.40;32.20;;;3.49;34.55;103154.75;8218090;28;20009;-88
2022/03/22 03:08:12;;;;;;;;;;;5.40;32.20;;;3.33;34.61;103129.56;8200585;29;20017;-88
2022/03/22 03:12:14;;;;;;;;;;;5.30;32.10;;;3.29;34.85;103130.38;8221700;28;20018;-88
2022/03/22 03:16:16;;;;;;;;;;;5.40;32.30;;;3.29;34.46;103149.34;8220407;28;20001;-88
2022/03/22 03:20:18;;;;;;;;;;;5.30;32.20;;;3.29;34.38;103166.50;8203760;28;20029;-88
2022/03/22 03:24:20;;;;;;;;;;;5.20;32.20;;;3.08;34.73;103138.69;8219482;28;20351;-88
2022/03/22 03:28:21;;;;;;;;;;;5.20;32.20;;;3.05;34.80;103146.38;8218038;28;20025;-88
2022/03/22 03:32:24;;;;;;;;;;;5.10;32.30;;;2.97;34.91;103148.84;8219006;28;20005;-88
2022/03/22 03:36:25;;;;;;;;;;;5.10;32.20;;;2.93;34.58;103147.06;8217888;28;20445;-88
2022/03/22 03:41:53;;;;;;;;;;;5.00;32.20;;;3.05;34.71;103178.22;8219116;28;20352;-88
2022/03/22 03:49:09;;;;;;;;;;;4.90;32.30;;;2.92;34.98;103175.41;8217633;28;20010;-87
2022/03/22 03:53:10;;;;;;;;;;;4.80;32.70;;;2.97;34.65;103184.09;8202476;28;20435;-88
2022/03/22 03:57:12;;;;;;;;;;;4.80;32.40;;;2.76;34.89;103157.13;8217064;28;19985;-88
2022/03/22 04:01:14;;;;;;;;;;;4.80;32.40;;;2.72;34.79;103163.03;8218367;28;20010;-88
2022/03/22 04:05:16;;;;;;;;;;;4.80;32.40;;;2.86;34.58;103196.81;8216673;28;20009;-87
2022/03/22 04:09:17;;;;;;;;;;;4.70;32.50;;;2.71;34.87;103181.97;8201852;28;20001;-87
2022/03/22 04:13:19;;;;;;;;;;;4.70;32.50;;;2.73;35.02;103190.59;8201270;28;19998;-87
2022/03/22 04:17:21;;;;;;;;;;;4.70;32.50;;;2.29;34.83;103125.34;8217622;28;20013;-87
2022/03/22 04:21:23;;;;;;;;;;;4.30;32.30;;;2.35;35.03;103149.53;8219711;28;20403;-86
2022/03/22 04:25:24;;;;;;;;;;;4.50;32.60;;;2.64;34.80;103200.75;8217692;28;20005;-86
2022/03/22 04:33:45;;;;;;;;;;;4.40;33.00;;;2.47;35.22;103186.69;8214626;28;20021;-86
2022/03/22 04:37:49;;;;;;;;;;;4.40;32.60;;;2.45;35.28;103186.66;8215072;28;20483;-86
2022/03/22 04:41:50;;;;;;;;;;;4.20;32.60;;;2.32;35.19;103171.78;8201527;28;20366;-86
2022/03/22 04:45:51;;;;;;;;;;;4.40;32.70;;;1.99;34.98;103123.91;8201571;28;20001;-86
2022/03/22 04:49:53;;;;;;;;;;;4.30;32.70;;;2.32;35.32;103193.31;8216225;28;20004;-85
2022/03/22 04:58:14;;;;;;;;;;;4.30;32.70;;;2.16;35.32;103192.16;8215016;28;20021;-85
2022/03/22 05:02:16;;;;;;;;;;;4.20;32.50;;;1.96;35.47;103173.69;8212740;28;20013;-85
2022/03/22 05:06:26;;;;;;;;;;;4.00;32.50;;;1.83;35.42;103168.25;8198258;29;20013;-84
2022/03/22 05:10:28;;;;;;;;;;;4.00;32.60;;;1.94;35.26;103200.25;8192684;28;20004;-84
2022/03/22 05:14:29;;;;;;;;;;;3.90;32.60;;;1.94;35.38;103208.00;8217650;28;20005;-84
2022/03/22 05:18:31;;;;;;;;;;;3.90;32.70;;;1.80;35.59;103193.97;8222258;28;19929;-84
2022/03/22 05:22:35;;;;;;;;;;;3.80;33.00;;;1.76;35.38;103181.03;8235866;28;20466;-84
2022/03/22 05:26:36;;;;;;;;;;;3.80;32.80;;;1.91;35.55;103210.50;8229050;28;20001;-84
2022/03/22 05:30:38;;;;;;;;;;;3.80;32.80;;;1.58;35.56;103164.31;8218554;28;20351;-85
2022/03/22 05:34:39;;;;;;;;;;;3.80;32.80;;;1.84;35.53;103208.66;8210342;28;20004;-84
2022/03/22 05:38:41;;;;;;;;;;;3.50;32.70;;;1.84;35.52;103211.22;8227791;28;19928;-84
2022/03/22 05:42:43;;;;;;;;;;;3.80;32.80;;;1.76;35.32;103195.59;8232900;28;20016;-85
2022/03/22 05:46:44;;;;;;;;;;;3.60;32.70;;;1.83;35.52;103196.59;8197508;28;20332;-83
2022/03/22 05:50:46;;;;;;;;;;;3.80;32.90;;;1.84;35.62;103203.50;8193314;28;20010;-86
2022/03/22 05:54:48;;;;;;;;;;;3.90;33.00;;;1.70;35.34;103180.91;8198448;29;20013;-83
2022/03/22 05:58:49;;;;;;;;;;;3.90;33.00;;;1.60;35.53;103162.63;8212630;28;19927;-81
2022/03/22 06:02:50;;;;;;;;;;;3.70;32.90;;;2.02;35.58;103216.75;8211896;28;20013;-80
2022/03/22 06:06:52;;;;;;;;;;;3.60;32.90;;;1.81;35.68;103185.38;8188180;28;19922;-80
2022/03/22 06:10:53;;;;;;;;;;;4.00;33.20;;;2.14;35.51;103240.22;8206348;28;20021;-81
2022/03/22 06:15:14;;;;;;;;;;;4.20;33.20;;;2.18;35.76;103242.00;8204808;28;20288;-86
2022/03/22 06:19:15;;;;;;;;;;;4.00;33.20;;;2.22;35.67;103238.66;8185806;28;20410;-82
2022/03/22 06:23:19;;;;;;;;;;;4.10;33.30;;;2.08;35.85;103204.00;8209538;28;20340;-88
2022/03/22 06:27:21;;;;;;;;;;;4.20;33.30;;;2.25;35.67;103227.53;8210199;28;20013;-88
2022/03/22 06:31:23;;;;;;;;;;;4.20;33.20;;;2.32;36.09;103231.09;8190101;28;20394;-83
2022/03/22 06:35:26;;;;;;;;;;;4.30;33.30;;;2.37;36.06;103226.88;8208984;28;20006;-86
2022/03/22 06:39:28;;;;;;;;;;;4.30;33.20;;;2.38;36.30;103215.75;8206590;28;19949;-90
2022/03/22 06:43:31;;;;;;;;;;;4.40;33.50;;;2.42;36.04;103196.91;8209262;28;20013;-86
2022/03/22 06:47:34;;;;;;;;;;;4.60;33.60;;;2.69;36.11;103221.47;8188893;28;19925;-86
2022/03/22 06:51:36;;;;;;;;;;;4.70;33.80;;;2.85;36.12;103211.44;8206754;28;20009;-86
2022/03/22 06:55:38;;;;;;;;;;;4.90;33.80;;;3.10;36.18;103223.03;8208067;28;20610;-84
2022/03/22 06:59:40;;;;;;;;;;;5.10;33.90;;;3.23;36.20;103210.31;8189636;28;19922;-83
2022/03/22 07:03:41;;;;;;;;;;;5.30;34.00;;;3.52;36.43;103232.28;8207817;28;19924;-84
2022/03/22 07:07:43;;;;;;;;;;;5.70;34.00;;;3.80;36.16;103252.50;8203865;28;19933;-85
2022/03/22 07:11:49;;;;;;;;;;;5.70;33.90;;;3.74;36.31;103215.38;8191324;28;19928;-85
2022/03/22 07:15:51;;;;;;;;;;;5.90;33.90;;;3.93;36.01;103228.53;8208727;28;20013;-84
2022/03/22 07:19:53;;;;;;;;;;;5.90;33.70;;;4.10;36.07;103231.34;8206373;28;19941;-85
2022/03/22 07:23:55;;;;;;;;;;;6.20;33.90;;;4.25;36.14;103235.84;8191173;28;19922;-85
2022/03/22 07:27:57;;;;;;;;;;;6.40;33.80;;;3.98;36.18;103162.25;8214223;28;20010;-82
2022/03/22 07:31:59;;;;;;;;;;;6.60;33.80;;;4.46;36.20;103220.56;8218806;28;20004;-91
2022/03/22 07:36:01;;;;;;;;;;;6.60;33.70;;;4.71;36.24;103242.38;8219851;28;20017;-91
2022/03/22 07:40:06;;;;;;;;;;;6.80;33.80;;;4.92;36.31;103246.03;8202108;29;20017;-93
2022/03/22 07:44:12;;;;;;;;;;;7.00;33.70;;;5.12;36.38;103254.81;8204278;28;20005;-92
2022/03/22 07:48:13;;;;;;;;;;;7.20;33.90;;;4.99;36.50;103208.94;8219571;28;20014;-93
2022/03/22 07:56:35;;;;;;;;;;;7.50;33.70;;;5.59;35.94;103238.78;8217672;28;20017;-93
2022/03/22 08:00:39;;;;;;;;;;;8.00;33.80;;;5.86;36.62;103240.66;8216476;28;20016;-91
2022/03/22 08:04:40;;;;;;;;;;;7.80;33.70;;;5.73;36.59;103169.72;8212570;28;20397;-83
2022/03/22 08:08:44;;;;;;;;;;;8.10;33.60;;;6.37;36.71;103223.59;8194229;28;19918;-88
2022/03/22 08:12:46;;;;;;;;;;;8.50;33.80;;;6.78;36.48;103227.13;8200113;29;20017;-89
2022/03/22 08:16:47;;;;;;;;;;;8.90;33.90;;;7.12;36.32;103209.78;8213965;28;20120;-89
2022/03/22 08:20:49;;;;;;;;;;;9.30;33.80;;;7.67;36.51;103238.31;8188370;28;19926;-90
2022/03/22 08:24:52;;;;;;;;;;;9.60;33.70;;;7.81;36.32;103206.19;8197803;28;20013;-90
2022/03/22 08:28:55;;;;;;;;;;;10.00;32.80;;;8.46;36.07;103253.66;8195103;28;20008;-89
2022/03/22 08:32:59;;;;;;;;;;;10.30;31.80;;;8.89;36.15;103258.59;8196015;28;20017;-90
2022/03/22 08:37:02;;;;;;;;;;;10.70;32.80;;;9.13;35.89;103229.72;8213553;28;20013;-92
2022/03/22 08:41:04;;;;;;;;;;;11.20;31.80;;;9.19;36.01;103200.13;8216531;28;20020;-93
2022/03/22 08:45:10;;;;;;;;;;;11.60;31.80;;;9.37;36.02;103165.16;8198458;28;20016;-93
2022/03/22 08:49:12;;;;;;;;;;;11.50;30.90;;;10.01;35.37;103227.03;8202698;28;20022;-92
2022/03/22 08:53:16;;;;;;;;;;;12.00;31.70;;;9.89;35.70;103160.19;8219781;28;20008;-94
2022/03/22 08:57:18;;;;;;;;;;;12.30;31.60;;;10.11;35.81;103152.94;8214794;28;20017;-92
2022/03/22 09:01:30;;;;;;;;;;;12.40;31.50;;;10.76;35.74;103206.84;8180433;29;20016;-82
2022/03/22 09:09:51;;;;;;;;;;;13.00;29.90;;;11.39;35.27;103229.28;8189592;28;19933;-83
2022/03/22 09:13:54;;;;;;;;;;;13.30;30.80;;;11.55;35.36;103207.19;8190911;29;19926;-88
2022/03/22 09:17:57;;;;;;;;;;;13.50;30.20;;;11.74;34.99;103211.16;8193848;28;20005;-91
2022/03/22 09:22:00;;;;;;;;;;;13.70;31.10;;;11.91;35.06;103210.00;8200282;28;20024;-92
2022/03/22 09:26:02;;;;;;;;;;;13.90;31.00;;;12.08;35.45;103193.94;8198771;28;20005;-91
2022/03/22 09:30:04;;;;;;;;;;;14.10;30.60;;;12.39;35.09;103204.56;8195160;28;20025;-88
2022/03/22 09:34:08;;;;;;;;;;;14.40;30.30;;;12.53;34.86;103191.16;8197248;28;20020;-88
2022/03/22 09:38:10;;;;;;;;;;;14.60;30.60;;;12.85;34.93;103206.09;8213912;28;20457;-90
2022/03/22 09:42:11;;;;;;;;;;;14.80;29.00;;;12.97;34.80;103189.22;8198351;28;19990;-89
2022/03/22 09:46:18;;;;;;;;;;;14.90;29.60;;;13.19;34.84;103189.50;8215034;28;20371;-89
2022/03/22 09:50:20;;;;;;;;;;;15.10;30.30;;;13.13;34.90;103147.69;8216275;28;20013;-90
2022/03/22 09:54:25;;;;;;;;;;;15.30;30.20;;;13.53;34.66;103183.34;8196581;29;20021;-88
2022/03/22 09:58:26;;;;;;;;;;;15.80;29.90;;;13.73;34.34;103187.13;8195909;28;19922;-90
2022/03/22 10:02:32;;;;;;;;;;;15.70;29.60;;;13.59;34.28;103134.16;8211628;28;20005;-89
2022/03/22 10:06:34;;;;;;;;;;;15.80;30.20;;;13.84;34.46;103141.31;8193132;29;20025;-89
2022/03/22 10:10:58;;;;;;;;;;;15.90;30.30;;;14.16;34.24;103169.22;8212052;28;20001;-90
2022/03/22 10:15:17;;;;;;;;;;;16.10;29.60;;;14.37;34.09;103165.94;8212300;28;20407;-90
2022/03/22 10:19:23;;;;;;;;;;;16.30;30.40;;;14.56;34.05;103176.75;8195949;28;20021;-90
2022/03/22 10:23:25;;;;;;;;;;;16.50;28.00;;;14.67;34.00;103152.72;8214322;28;20013;-89
2022/03/22 10:27:29;;;;;;;;;;;16.60;29.20;;;14.91;33.91;103169.44;8196906;29;20017;-89
2022/03/22 10:31:33;;;;;;;;;;;17.00;29.90;;;14.59;34.01;103084.59;8215066;28;20021;-89
2022/03/22 10:35:36;;;;;;;;;;;16.80;29.60;;;14.76;33.83;103073.50;8217380;28;20392;-89
2022/03/22 10:39:41;;;;;;;;;;;17.30;30.10;;;15.36;34.10;103141.53;8214021;28;20033;-90
2022/03/22 10:43:45;;;;;;;;;;;17.30;29.80;;;15.13;33.90;103087.97;8208210;28;20001;-88
2022/03/22 10:47:47;;;;;;;;;;;17.70;30.00;;;15.18;33.66;103064.13;8218948;28;20072;-89
2022/03/22 10:51:52;;;;;;;;;;;17.50;29.70;;;15.81;33.63;103152.16;8216245;28;20018;-89
2022/03/22 10:55:54;;;;;;;;;;;17.50;29.80;;;15.89;33.71;103123.75;8200233;28;20033;-87
2022/03/22 10:59:57;;;;;;;;;;;17.80;30.20;;;15.72;33.65;103068.22;8226259;28;20018;-87
2022/03/22 11:03:59;;;;;;;;;;;17.90;29.60;;;16.20;33.50;103119.88;8219270;28;19997;-79
2022/03/22 11:08:01;;;;;;;;;;;18.00;29.40;;;16.22;33.20;103098.72;8198398;28;20291;-88
2022/03/22 11:12:02;;;;;;;;;;;18.00;30.00;;;16.46;33.34;103107.41;8218262;28;20009;-84
2022/03/22 11:16:05;;;;;;;;;;;18.40;28.10;;;16.62;32.98;103111.13;8220419;28;20013;-86
2022/03/22 11:20:09;;;;;;;;;;;18.50;29.20;;;16.60;32.88;103081.28;8219130;28;19930;-89
2022/03/22 11:24:12;;;;;;;;;;;18.60;29.00;;;16.95;32.80;103113.25;8200300;28;20009;-85
2022/03/22 11:28:19;;;;;;;;;;;18.90;29.10;;;17.02;32.47;103107.63;8216813;28;20005;-83
2022/03/22 11:36:49;;;;;;;;;;;18.90;28.60;;;17.24;32.45;103096.97;8216459;28;20009;-86
2022/03/22 11:45:13;;;;;;;;;;;18.80;27.00;;;17.41;32.16;103082.13;8214322;28;20013;-86
2022/03/22 11:49:15;;;;;;;;;;;18.90;28.60;;;17.48;32.37;103086.22;8204723;28;20013;-83
2022/03/22 11:53:20;;;;;;;;;;;19.30;28.40;;;17.44;31.81;103052.94;8215675;28;20009;-87
2022/03/22 11:57:22;;;;;;;;;;;19.40;28.80;;;17.66;32.32;103066.84;8216356;28;20021;-86
2022/03/22 12:01:35;;;;;;;;;;;19.50;28.90;;;17.61;32.26;103034.50;8214715;28;20009;-86
2022/03/22 12:05:36;;;;;;;;;;;19.60;28.80;;;17.57;32.05;103011.78;8215559;28;20017;-87
2022/03/22 12:09:40;;;;;;;;;;;19.70;28.50;;;17.74;31.71;103024.22;8199313;28;20002;-88
2022/03/22 12:13:49;;;;;;;;;;;19.60;28.30;;;18.11;31.83;103078.78;8215469;28;20443;-89
2022/03/22 12:17:52;;;;;;;;;;;19.80;28.30;;;18.17;31.85;103056.47;8202781;28;19995;-86
2022/03/22 12:21:55;;;;;;;;;;;19.90;29.40;;;18.11;31.93;103041.75;8216000;28;20017;-85
2022/03/22 12:25:56;;;;;;;;;;;20.10;28.80;;;18.23;31.65;103045.59;8213954;28;20001;-85
2022/03/22 12:29:58;;;;;;;;;;;20.00;28.70;;;18.35;31.68;103049.41;8198460;28;20005;-84
2022/03/22 12:34:00;;;;;;;;;;;20.10;27.80;;;18.46;31.87;103041.75;8198372;28;20013;-86
2022/03/22 12:38:02;;;;;;;;;;;20.10;27.90;;;18.46;31.68;103028.53;8214087;28;20008;-85
2022/03/22 12:42:06;;;;;;;;;;;20.10;27.00;;;18.43;31.64;102998.75;8214520;28;20005;-83
2022/03/22 12:46:09;;;;;;;;;;;20.40;28.60;;;18.71;31.48;103033.41;8216945;28;20024;-84
2022/03/22 12:50:12;;;;;;;;;;;20.40;28.30;;;18.60;31.35;103003.13;8199749;28;20359;-83
2022/03/22 12:54:18;;;;;;;;;;;20.40;28.40;;;18.74;31.24;103024.44;8198096;29;20350;-84
2022/03/22 12:58:28;;;;;;;;;;;20.50;27.10;;;18.67;31.27;103001.88;8212580;28;19927;-84
2022/03/22 13:02:30;;;;;;;;;;;20.50;27.90;;;18.84;31.17;103009.81;8207821;28;20009;-83
2022/03/22 13:06:32;;;;;;;;;;;20.50;28.70;;;18.67;31.23;102970.13;8212690;28;20373;-83
2022/03/22 13:15:07;;;;;;;;;;;20.50;28.20;;;19.08;31.30;103007.63;8212752;28;20443;-84
2022/03/22 13:19:09;;;;;;;;;;;20.70;28.60;;;19.09;30.94;103001.41;8215881;28;19923;-84
2022/03/22 13:23:15;;;;;;;;;;;20.50;28.60;;;19.14;30.87;102994.03;8211818;28;20017;-84
2022/03/22 13:27:17;;;;;;;;;;;20.80;27.70;;;19.17;30.84;102993.00;8213362;28;20013;-84
2022/03/22 13:31:25;;;;;;;;;;;20.80;26.90;;;18.96;30.85;102945.59;8212305;28;20021;-83
2022/03/22 13:35:27;;;;;;;;;;;20.80;28.00;;;18.93;30.60;102935.19;8190958;29;20005;-83
2022/03/22 13:39:28;;;;;;;;;;;20.80;27.20;;;18.69;30.65;102887.06;8211586;28;19927;-83
2022/03/22 13:43:31;;;;;;;;;;;20.80;27.90;;;19.27;30.50;102975.69;8206197;28;20005;-83
2022/03/22 13:47:41;;;;;;;;;;;21.00;28.40;;;19.30;30.64;102974.66;8217044;28;20017;-83
2022/03/22 13:51:43;;;;;;;;;;;20.90;27.40;;;19.02;30.43;102924.06;8205190;28;19926;-86
2022/03/22 13:55:48;;;;;;;;;;;20.90;28.50;;;19.35;30.66;102959.34;8196609;28;20005;-84
2022/03/22 13:59:59;;;;;;;;;;;20.90;27.70;;;19.16;30.33;102919.78;8212397;28;19930;-83
2022/03/22 14:04:00;;;;;;;;;;;20.90;27.90;;;19.39;30.22;102953.81;8211079;28;20033;-86
2022/03/22 14:08:02;;;;;;;;;;;20.90;27.70;;;19.30;30.25;102922.50;8211486;28;20009;-86
2022/03/22 14:12:04;;;;;;;;;;;20.90;26.50;;;19.48;30.01;102949.75;8206734;28;19926;-85
2022/03/22 14:16:06;;;;;;;;;;;21.00;27.80;;;19.49;30.00;102934.72;8195563;28;20673;-87
2022/03/22 14:20:08;;;;;;;;;;;21.10;27.60;;;19.48;29.91;102931.22;8211690;28;20306;-84
2022/03/22 14:24:10;;;;;;;;;;;21.00;25.90;;;19.50;29.82;102934.63;8210966;28;20001;-88
2022/03/22 14:28:13;;;;;;;;;;;21.00;26.70;;;19.26;29.76;102883.91;8211079;28;20364;-84
2022/03/22 14:32:14;;;;;;;;;;;21.00;27.30;;;19.49;29.65;102921.44;8213102;28;20009;-85
2022/03/22 14:36:16;;;;;;;;;;;21.00;27.10;;;19.47;29.72;102918.91;8217117;28;20018;-85
2022/03/22 14:40:18;;;;;;;;;;;21.00;27.60;;;19.44;29.93;102903.16;8217745;28;20018;-88
2022/03/22 14:44:19;;;;;;;;;;;21.00;26.70;;;19.46;29.71;102907.44;8206762;29;19986;-88
2022/03/22 14:48:23;;;;;;;;;;;20.90;27.80;;;19.48;29.53;102898.56;8231715;28;19966;-88
2022/03/22 15:01:05;;;;;;;;;;;21.10;26.90;;;19.58;29.37;102889.13;8205572;28;19936;-87
2022/03/22 15:05:31;;;;;;;;;;;21.10;27.90;;;19.24;29.83;102822.19;8207770;28;19929;-86
2022/03/22 15:09:29;;;;;;;;;;;21.10;28.10;;;19.30;29.45;102837.72;8198423;28;19926;-87
2022/03/22 15:13:30;;;;;;;;;;;21.30;28.20;;;19.58;29.75;102870.59;8214433;28;19953;-87
2022/03/22 15:17:33;;;;;;;;;;;21.10;28.20;;;19.52;29.38;102852.38;8203218;28;19926;-87
2022/03/22 15:21:37;;;;;;;;;;;21.10;26.50;;;19.65;29.62;102875.41;8211391;28;19944;-87
2022/03/22 15:25:40;;;;;;;;;;;21.10;27.60;;;19.52;29.57;102845.25;8204808;28;19922;-87
2022/03/22 15:29:42;;;;;;;;;;;21.00;27.40;;;19.37;29.47;102811.75;8209312;28;20458;-86
2022/03/22 15:33:44;;;;;;;;;;;21.10;27.80;;;19.61;29.47;102852.69;8209179;28;19929;-87
2022/03/22 15:37:51;;;;;;;;;;;21.10;26.10;;;19.55;29.26;102833.63;8198253;28;19927;-87
2022/03/22 15:41:52;;;;;;;;;;;21.10;27.20;;;19.66;29.35;102858.59;8193168;29;19926;-87
2022/03/22 15:46:16;;;;;;;;;;;21.10;27.00;;;19.63;29.33;102850.81;8217165;28;19930;-86
2022/03/22 15:50:38;;;;;;;;;;;20.90;26.80;;;19.60;29.22;102844.81;8207324;28;19922;-86
2022/03/22 15:55:07;;;;;;;;;;;21.10;27.70;;;19.55;29.21;102833.63;8223900;28;19922;-88
2022/03/22 15:59:28;;;;;;;;;;;21.10;28.10;;;19.54;29.27;102830.13;8201452;28;20391;-87
2022/03/22 16:03:51;;;;;;;;;;;21.10;27.70;;;19.40;29.29;102803.59;8212620;28;19940;-87
2022/03/22 16:08:18;;;;;;;;;;;21.10;27.20;;;19.51;29.34;102818.88;8208742;28;19918;-88
2022/03/22 16:12:49;;;;;;;;;;;21.10;28.10;;;19.64;29.30;102846.34;8219520;28;19933;-87
2022/03/22 16:17:11;;;;;;;;;;;21.10;28.10;;;19.58;29.20;102838.78;8223330;28;19940;-86
2022/03/22 16:21:32;;;;;;;;;;;21.00;28.30;;;19.54;29.19;102838.09;8228537;28;19922;-87
2022/03/22 16:25:58;;;;;;;;;;;21.00;28.40;;;19.51;29.32;102845.38;8211114;28;19934;-87
2022/03/22 16:30:28;;;;;;;;;;;21.00;28.00;;;19.45;29.17;102841.28;8221066;28;20005;-87
2022/03/22 16:39:39;;;;;;;;;;;20.80;27.60;;;18.87;29.27;102757.28;8229571;28;19946;-86
2022/03/22 16:44:06;;;;;;;;;;;20.50;27.90;;;19.14;28.92;102831.63;8228334;28;20028;-86
2022/03/22 16:48:35;;;;;;;;;;;20.60;28.10;;;18.78;29.10;102801.88;8215867;28;19985;-86
2022/03/22 16:52:56;;;;;;;;;;;20.50;28.00;;;18.81;28.99;102821.16;8223601;28;20307;-87
2022/03/22 16:57:18;;;;;;;;;;;20.30;28.30;;;18.61;29.02;102811.69;8206754;28;19918;-87
2022/03/22 17:01:43;;;;;;;;;;;20.20;28.40;;;18.51;28.93;102820.13;8212965;28;20383;-86
2022/03/22 17:06:09;;;;;;;;;;;20.00;28.40;;;18.41;28.96;102829.47;8211366;28;19922;-89
2022/03/22 17:10:31;;;;;;;;;;;19.80;28.40;;;18.20;28.99;102826.25;8183930;28;19938;-87
2022/03/22 17:14:52;;;;;;;;;;;19.70;28.50;;;18.03;29.05;102815.69;8201261;28;19930;-86
2022/03/22 17:19:21;;;;;;;;;;;19.50;28.40;;;17.85;29.00;102813.09;8208403;28;19926;-87
2022/03/22 17:23:47;;;;;;;;;;;19.40;28.50;;;17.79;29.11;102821.31;8185905;28;21759;-87
2022/03/22 17:28:08;;;;;;;;;;;19.00;28.50;;;17.57;29.11;102803.06;8203897;28;20372;-88
2022/03/22 17:32:30;;;;;;;;;;;19.10;28.60;;;17.51;29.16;102806.03;8190726;28;20402;-88
2022/03/22 17:36:55;;;;;;;;;;;19.00;28.70;;;17.51;29.10;102829.81;8194742;28;20343;-88
2022/03/22 17:41:17;;;;;;;;;;;18.90;28.80;;;17.36;29.05;102818.25;8206608;28;19949;-89
2022/03/22 17:45:39;;;;;;;;;;;18.80;28.80;;;17.32;29.35;102829.88;8196143;28;19926;-88
2022/03/22 17:50:03;;;;;;;;;;;18.70;28.80;;;17.13;29.04;102814.09;8209989;28;19926;-87
2022/03/22 17:54:25;;;;;;;;;;;18.50;28.80;;;17.01;29.06;102819.97;8212702;28;19932;-87
2022/03/22 17:58:48;;;;;;;;;;;18.40;28.80;;;16.83;29.24;102812.97;8217289;28;20418;-87
2022/03/22 18:03:12;;;;;;;;;;;18.20;28.80;;;16.79;29.22;102834.19;8211446;28;19926;-87
2022/03/22 18:07:34;;;;;;;;;;;18.10;28.90;;;16.30;29.47;102781.06;8213804;28;19926;-87
2022/03/22 18:11:56;;;;;;;;;;;18.20;29.00;;;16.25;29.11;102798.88;8189208;28;19922;-88
2022/03/22 18:16:17;;;;;;;;;;;17.80;28.80;;;16.30;29.29;102833.81;8206604;28;19928;-88
2022/03/22 18:20:41;;;;;;;;;;;17.70;29.10;;;16.19;29.16;102836.09;8211047;28;22097;-88
2022/03/22 18:25:08;;;;;;;;;;;17.50;28.80;;;16.02;29.41;102838.63;8219727;28;19926;-87
2022/03/22 18:29:30;;;;;;;;;;;17.40;28.90;;;15.84;29.28;102837.66;8184737;28;20010;-88
2022/03/22 18:33:51;;;;;;;;;;;17.20;28.80;;;15.53;29.23;102827.53;8205217;28;19926;-87
2022/03/22 18:38:16;;;;;;;;;;;17.00;28.70;;;15.24;29.02;102814.66;8198235;28;19929;-87
2022/03/22 18:42:38;;;;;;;;;;;16.80;28.70;;;15.15;29.08;102835.25;8209353;28;19932;-88
2022/03/22 18:47:00;;;;;;;;;;;16.80;28.70;;;15.00;29.11;102847.25;8216066;28;20402;-88
2022/03/22 18:51:24;;;;;;;;;;;16.40;28.70;;;14.47;29.30;102790.53;8207363;28;20518;-88
2022/03/22 18:55:46;;;;;;;;;;;16.20;28.80;;;14.74;29.47;102867.56;8202671;28;20508;-89
2022/03/22 19:00:10;;;;;;;;;;;16.00;28.80;;;14.54;29.27;102846.41;8205717;28;19926;-88
2022/03/22 19:04:32;;;;;;;;;;;15.90;28.90;;;14.49;29.34;102864.09;8205294;28;19926;-88
2022/03/22 19:08:54;;;;;;;;;;;15.80;28.90;;;14.28;29.50;102853.44;8194171;28;19929;-87
2022/03/22 19:13:15;;;;;;;;;;;15.70;29.00;;;14.11;29.60;102840.94;8205029;28;19925;-87
2022/03/22 19:17:51;;;;;;;;;;;15.40;29.00;;;14.22;29.66;102869.44;8209185;28;19924;-87
2022/03/22 19:22:22;;;;;;;;;;;15.40;29.00;;;14.08;29.53;102867.31;8194544;28;19926;-88
2022/03/22 19:26:49;;;;;;;;;;;15.30;29.00;;;13.97;29.25;102860.72;8196224;28;19926;-88
2022/03/22 19:35:51;;;;;;;;;;;15.10;29.10;;;13.65;29.47;102845.16;8211463;28;20001;-88
2022/03/22 19:40:13;;;;;;;;;;;15.00;29.10;;;13.61;29.46;102850.56;8211298;28;19923;-88
2022/03/22 19:44:35;;;;;;;;;;;14.80;29.10;;;13.50;29.68;102843.03;8195093;28;19918;-87
2022/03/22 19:48:56;;;;;;;;;;;14.80;29.20;;;13.41;29.50;102849.47;8197998;28;20009;-88
2022/03/22 19:53:21;;;;;;;;;;;14.70;29.20;;;13.24;29.69;102849.13;8199049;28;20005;-88